sensor_id;sensor_type;location;lat;lon;timestamp;P1;durP1;ratioP1;P2;durP2;ratioP2
33593;SDS011;19920;52.242;20.940;2024-02-14T00:02:09;16.48;;;7.45;;
33593;SDS011;19920;52.242;20.940;2024-02-14T00:04:34;14.30;;;6.97;;
33593;SDS011;19920;52.242;20.940;2024-02-14T00:07:00;12.80;;;6.35;;
33593;SDS011;19920;52.242;20.940;2024-02-14T00:09:25;12.07;;;6.22;;
33593;SDS011;19920;52.242;20.940;2024-02-14T00:11:51;12.88;;;6.03;;
33593;SDS011;19920;52.242;20.940;2024-02-14T00:14:17;13.75;;;6.25;;
33593;SDS011;19920;52.242;20.940;2024-02-14T00:16:45;11.50;;;6.70;;
33593;SDS011;19920;52.242;20.940;2024-02-14T00:19:10;12.30;;;5.72;;
33593;SDS011;19920;52.242;20.940;2024-02-14T00:21:36;13.50;;;6.00;;
33593;SDS011;19920;52.242;20.940;2024-02-14T00:24:03;14.73;;;6.55;;
33593;SDS011;19920;52.242;20.940;2024-02-14T00:26:29;11.15;;;5.85;;
33593;SDS011;19920;52.242;20.940;2024-02-14T00:28:55;12.30;;;6.38;;
33593;SDS011;19920;52.242;20.940;2024-02-14T00:31:21;12.27;;;5.88;;
33593;SDS011;19920;52.242;20.940;2024-02-14T00:33:47;14.00;;;6.63;;
33593;SDS011;19920;52.242;20.940;2024-02-14T00:36:12;14.65;;;6.20;;
33593;SDS011;19920;52.242;20.940;2024-02-14T00:38:38;14.20;;;6.82;;
33593;SDS011;19920;52.242;20.940;2024-02-14T00:41:04;15.82;;;6.45;;
33593;SDS011;19920;52.242;20.940;2024-02-14T00:43:29;13.30;;;6.32;;
33593;SDS011;19920;52.242;20.940;2024-02-14T00:45:55;14.50;;;6.50;;
33593;SDS011;19920;52.242;20.940;2024-02-14T00:48:23;13.43;;;6.80;;
33593;SDS011;19920;52.242;20.940;2024-02-14T00:50:49;12.93;;;5.95;;
33593;SDS011;19920;52.242;20.940;2024-02-14T00:53:17;16.05;;;6.63;;
33593;SDS011;19920;52.242;20.940;2024-02-14T00:55:42;16.67;;;6.93;;
33593;SDS011;19920;52.242;20.940;2024-02-14T00:58:08;12.73;;;6.72;;
33593;SDS011;19920;52.242;20.940;2024-02-14T01:00:34;12.15;;;7.15;;
33593;SDS011;19920;52.242;20.940;2024-02-14T01:02:59;13.90;;;7.78;;
33593;SDS011;19920;52.242;20.940;2024-02-14T01:05:25;16.13;;;7.25;;
33593;SDS011;19920;52.242;20.940;2024-02-14T01:07:51;16.92;;;7.65;;
33593;SDS011;19920;52.242;20.940;2024-02-14T01:10:18;15.73;;;7.80;;
33593;SDS011;19920;52.242;20.940;2024-02-14T01:12:44;14.10;;;7.40;;
33593;SDS011;19920;52.242;20.940;2024-02-14T01:15:10;15.85;;;7.53;;
33593;SDS011;19920;52.242;20.940;2024-02-14T01:17:35;15.18;;;7.60;;
33593;SDS011;19920;52.242;20.940;2024-02-14T01:20:02;17.75;;;8.30;;
33593;SDS011;19920;52.242;20.940;2024-02-14T01:22:28;14.32;;;7.88;;
33593;SDS011;19920;52.242;20.940;2024-02-14T01:24:54;17.80;;;8.48;;
33593;SDS011;19920;52.242;20.940;2024-02-14T01:27:20;14.63;;;7.53;;
33593;SDS011;19920;52.242;20.940;2024-02-14T01:29:47;16.50;;;8.05;;
33593;SDS011;19920;52.242;20.940;2024-02-14T01:32:13;16.42;;;8.43;;
33593;SDS011;19920;52.242;20.940;2024-02-14T01:34:39;17.50;;;8.25;;
33593;SDS011;19920;52.242;20.940;2024-02-14T01:37:04;16.52;;;8.95;;
33593;SDS011;19920;52.242;20.940;2024-02-14T01:39:31;14.93;;;8.52;;
33593;SDS011;19920;52.242;20.940;2024-02-14T01:41:56;18.92;;;9.45;;
33593;SDS011;19920;52.242;20.940;2024-02-14T01:44:22;20.50;;;8.13;;
33593;SDS011;19920;52.242;20.940;2024-02-14T01:46:48;17.20;;;8.82;;
33593;SDS011;19920;52.242;20.940;2024-02-14T01:49:13;16.25;;;9.18;;
33593;SDS011;19920;52.242;20.940;2024-02-14T01:51:42;19.35;;;9.50;;
33593;SDS011;19920;52.242;20.940;2024-02-14T01:54:10;20.85;;;9.02;;
33593;SDS011;19920;52.242;20.940;2024-02-14T01:56:37;17.42;;;8.88;;
33593;SDS011;19920;52.242;20.940;2024-02-14T01:59:04;15.90;;;8.80;;
33593;SDS011;19920;52.242;20.940;2024-02-14T02:01:31;17.15;;;9.25;;
33593;SDS011;19920;52.242;20.940;2024-02-14T02:03:57;19.45;;;8.82;;
33593;SDS011;19920;52.242;20.940;2024-02-14T02:06:23;18.15;;;9.20;;
33593;SDS011;19920;52.242;20.940;2024-02-14T02:08:51;22.63;;;9.73;;
33593;SDS011;19920;52.242;20.940;2024-02-14T02:11:17;18.25;;;9.32;;
33593;SDS011;19920;52.242;20.940;2024-02-14T02:13:42;16.92;;;8.85;;
33593;SDS011;19920;52.242;20.940;2024-02-14T02:16:08;14.82;;;8.57;;
33593;SDS011;19920;52.242;20.940;2024-02-14T02:18:34;16.83;;;9.07;;
33593;SDS011;19920;52.242;20.940;2024-02-14T02:20:59;18.60;;;9.07;;
33593;SDS011;19920;52.242;20.940;2024-02-14T02:23:28;16.83;;;8.75;;
33593;SDS011;19920;52.242;20.940;2024-02-14T02:25:55;19.15;;;8.98;;
33593;SDS011;19920;52.242;20.940;2024-02-14T02:28:20;16.55;;;8.70;;
33593;SDS011;19920;52.242;20.940;2024-02-14T02:30:46;15.40;;;8.52;;
33593;SDS011;19920;52.242;20.940;2024-02-14T02:33:11;16.25;;;8.57;;
33593;SDS011;19920;52.242;20.940;2024-02-14T02:35:39;17.08;;;9.82;;
33593;SDS011;19920;52.242;20.940;2024-02-14T02:38:07;17.10;;;9.18;;
33593;SDS011;19920;52.242;20.940;2024-02-14T02:40:32;17.88;;;9.43;;
33593;SDS011;19920;52.242;20.940;2024-02-14T02:42:58;18.75;;;9.18;;
33593;SDS011;19920;52.242;20.940;2024-02-14T02:45:25;16.23;;;9.13;;
33593;SDS011;19920;52.242;20.940;2024-02-14T02:47:51;18.63;;;10.13;;
33593;SDS011;19920;52.242;20.940;2024-02-14T02:50:18;19.00;;;9.63;;
33593;SDS011;19920;52.242;20.940;2024-02-14T02:52:44;18.27;;;9.50;;
33593;SDS011;19920;52.242;20.940;2024-02-14T02:55:10;18.05;;;9.65;;
33593;SDS011;19920;52.242;20.940;2024-02-14T02:57:36;20.60;;;9.93;;
33593;SDS011;19920;52.242;20.940;2024-02-14T03:00:04;20.73;;;10.25;;
33593;SDS011;19920;52.242;20.940;2024-02-14T03:02:32;21.20;;;10.82;;
33593;SDS011;19920;52.242;20.940;2024-02-14T03:04:59;19.85;;;9.98;;
33593;SDS011;19920;52.242;20.940;2024-02-14T03:07:25;19.48;;;9.82;;
33593;SDS011;19920;52.242;20.940;2024-02-14T03:09:51;18.80;;;10.65;;
33593;SDS011;19920;52.242;20.940;2024-02-14T03:12:17;20.60;;;10.80;;
33593;SDS011;19920;52.242;20.940;2024-02-14T03:14:43;15.70;;;9.85;;
33593;SDS011;19920;52.242;20.940;2024-02-14T03:17:09;20.88;;;10.27;;
33593;SDS011;19920;52.242;20.940;2024-02-14T03:19:35;21.92;;;11.25;;
33593;SDS011;19920;52.242;20.940;2024-02-14T03:22:03;21.65;;;11.27;;
33593;SDS011;19920;52.242;20.940;2024-02-14T03:24:30;20.77;;;10.68;;
33593;SDS011;19920;52.242;20.940;2024-02-14T03:26:56;23.73;;;11.18;;
33593;SDS011;19920;52.242;20.940;2024-02-14T03:29:22;19.92;;;11.18;;
33593;SDS011;19920;52.242;20.940;2024-02-14T03:31:47;18.80;;;10.68;;
33593;SDS011;19920;52.242;20.940;2024-02-14T03:34:13;22.25;;;10.95;;
33593;SDS011;19920;52.242;20.940;2024-02-14T03:36:39;17.67;;;11.00;;
33593;SDS011;19920;52.242;20.940;2024-02-14T03:39:05;25.52;;;12.07;;
33593;SDS011;19920;52.242;20.940;2024-02-14T03:41:31;23.73;;;11.85;;
33593;SDS011;19920;52.242;20.940;2024-02-14T03:43:57;24.33;;;11.60;;
33593;SDS011;19920;52.242;20.940;2024-02-14T03:46:28;23.63;;;11.18;;
33593;SDS011;19920;52.242;20.940;2024-02-14T03:48:54;20.80;;;11.98;;
33593;SDS011;19920;52.242;20.940;2024-02-14T03:51:20;21.40;;;11.73;;
33593;SDS011;19920;52.242;20.940;2024-02-14T03:53:50;27.23;;;12.68;;
33593;SDS011;19920;52.242;20.940;2024-02-14T03:56:15;25.65;;;12.90;;
33593;SDS011;19920;52.242;20.940;2024-02-14T03:58:42;27.00;;;13.48;;
33593;SDS011;19920;52.242;20.940;2024-02-14T04:01:07;24.60;;;13.85;;
33593;SDS011;19920;52.242;20.940;2024-02-14T04:03:33;23.17;;;12.93;;
33593;SDS011;19920;52.242;20.940;2024-02-14T04:05:59;25.38;;;12.85;;
33593;SDS011;19920;52.242;20.940;2024-02-14T04:08:25;24.63;;;12.70;;
33593;SDS011;19920;52.242;20.940;2024-02-14T04:10:51;24.35;;;12.88;;
33593;SDS011;19920;52.242;20.940;2024-02-14T04:13:19;27.42;;;13.02;;
33593;SDS011;19920;52.242;20.940;2024-02-14T04:15:44;24.58;;;12.85;;
33593;SDS011;19920;52.242;20.940;2024-02-14T04:18:11;24.13;;;12.75;;
33593;SDS011;19920;52.242;20.940;2024-02-14T04:20:37;23.90;;;13.10;;
33593;SDS011;19920;52.242;20.940;2024-02-14T04:23:02;25.38;;;13.13;;
33593;SDS011;19920;52.242;20.940;2024-02-14T04:25:31;26.00;;;13.13;;
33593;SDS011;19920;52.242;20.940;2024-02-14T04:27:57;26.00;;;12.75;;
33593;SDS011;19920;52.242;20.940;2024-02-14T04:30:24;38.05;;;20.77;;
33593;SDS011;19920;52.242;20.940;2024-02-14T04:32:50;26.08;;;14.40;;
33593;SDS011;19920;52.242;20.940;2024-02-14T04:35:16;29.17;;;13.57;;
33593;SDS011;19920;52.242;20.940;2024-02-14T04:37:42;24.75;;;13.45;;
33593;SDS011;19920;52.242;20.940;2024-02-14T04:40:11;25.13;;;13.15;;
33593;SDS011;19920;52.242;20.940;2024-02-14T04:42:37;25.80;;;13.57;;
33593;SDS011;19920;52.242;20.940;2024-02-14T04:45:03;27.77;;;14.40;;
33593;SDS011;19920;52.242;20.940;2024-02-14T04:47:29;27.60;;;14.30;;
33593;SDS011;19920;52.242;20.940;2024-02-14T04:49:55;24.88;;;13.80;;
33593;SDS011;19920;52.242;20.940;2024-02-14T04:52:20;28.35;;;14.60;;
33593;SDS011;19920;52.242;20.940;2024-02-14T04:54:46;22.95;;;12.98;;
33593;SDS011;19920;52.242;20.940;2024-02-14T04:57:12;27.17;;;14.52;;
33593;SDS011;19920;52.242;20.940;2024-02-14T04:59:37;23.23;;;13.70;;
33593;SDS011;19920;52.242;20.940;2024-02-14T05:02:03;27.38;;;14.35;;
33593;SDS011;19920;52.242;20.940;2024-02-14T05:04:29;24.00;;;14.05;;
33593;SDS011;19920;52.242;20.940;2024-02-14T05:06:54;25.85;;;14.27;;
33593;SDS011;19920;52.242;20.940;2024-02-14T05:09:20;25.85;;;14.73;;
33593;SDS011;19920;52.242;20.940;2024-02-14T05:11:46;25.40;;;13.93;;
33593;SDS011;19920;52.242;20.940;2024-02-14T05:14:12;26.55;;;13.90;;
33593;SDS011;19920;52.242;20.940;2024-02-14T05:16:38;24.63;;;13.48;;
33593;SDS011;19920;52.242;20.940;2024-02-14T05:19:03;28.45;;;14.27;;
33593;SDS011;19920;52.242;20.940;2024-02-14T05:21:29;25.58;;;13.85;;
33593;SDS011;19920;52.242;20.940;2024-02-14T05:23:55;24.17;;;13.90;;
33593;SDS011;19920;52.242;20.940;2024-02-14T05:26:20;26.42;;;13.63;;
33593;SDS011;19920;52.242;20.940;2024-02-14T05:28:46;28.27;;;13.70;;
33593;SDS011;19920;52.242;20.940;2024-02-14T05:31:11;24.77;;;13.18;;
33593;SDS011;19920;52.242;20.940;2024-02-14T05:33:37;25.30;;;13.52;;
33593;SDS011;19920;52.242;20.940;2024-02-14T05:36:02;24.23;;;13.10;;
33593;SDS011;19920;52.242;20.940;2024-02-14T05:38:28;24.92;;;14.05;;
33593;SDS011;19920;52.242;20.940;2024-02-14T05:40:54;24.90;;;13.45;;
33593;SDS011;19920;52.242;20.940;2024-02-14T05:43:22;25.88;;;14.10;;
33593;SDS011;19920;52.242;20.940;2024-02-14T05:45:47;24.05;;;13.30;;
33593;SDS011;19920;52.242;20.940;2024-02-14T05:48:13;26.38;;;13.90;;
33593;SDS011;19920;52.242;20.940;2024-02-14T05:50:39;26.02;;;13.23;;
33593;SDS011;19920;52.242;20.940;2024-02-14T05:53:05;23.20;;;13.18;;
33593;SDS011;19920;52.242;20.940;2024-02-14T05:55:31;21.00;;;11.77;;
33593;SDS011;19920;52.242;20.940;2024-02-14T05:57:57;21.70;;;12.48;;
33593;SDS011;19920;52.242;20.940;2024-02-14T06:00:24;25.33;;;12.93;;
33593;SDS011;19920;52.242;20.940;2024-02-14T06:02:50;22.50;;;12.88;;
33593;SDS011;19920;52.242;20.940;2024-02-14T06:05:16;24.38;;;12.90;;
33593;SDS011;19920;52.242;20.940;2024-02-14T06:07:42;27.63;;;12.50;;
33593;SDS011;19920;52.242;20.940;2024-02-14T06:10:10;25.42;;;12.40;;
33593;SDS011;19920;52.242;20.940;2024-02-14T06:12:36;23.23;;;12.13;;
33593;SDS011;19920;52.242;20.940;2024-02-14T06:15:01;20.35;;;11.93;;
33593;SDS011;19920;52.242;20.940;2024-02-14T06:17:27;25.30;;;12.68;;
33593;SDS011;19920;52.242;20.940;2024-02-14T06:19:53;21.65;;;12.00;;
33593;SDS011;19920;52.242;20.940;2024-02-14T06:22:19;20.73;;;12.20;;
33593;SDS011;19920;52.242;20.940;2024-02-14T06:24:45;23.10;;;12.18;;
33593;SDS011;19920;52.242;20.940;2024-02-14T06:27:13;24.92;;;12.45;;
33593;SDS011;19920;52.242;20.940;2024-02-14T06:29:41;19.60;;;12.20;;
33593;SDS011;19920;52.242;20.940;2024-02-14T06:32:12;21.48;;;12.05;;
33593;SDS011;19920;52.242;20.940;2024-02-14T06:34:38;21.35;;;11.88;;
33593;SDS011;19920;52.242;20.940;2024-02-14T06:37:04;24.95;;;12.32;;
33593;SDS011;19920;52.242;20.940;2024-02-14T06:39:30;21.00;;;11.93;;
33593;SDS011;19920;52.242;20.940;2024-02-14T06:41:55;21.25;;;12.07;;
33593;SDS011;19920;52.242;20.940;2024-02-14T06:44:22;22.05;;;13.00;;
33593;SDS011;19920;52.242;20.940;2024-02-14T06:46:48;22.45;;;11.80;;
33593;SDS011;19920;52.242;20.940;2024-02-14T06:49:15;23.55;;;12.57;;
33593;SDS011;19920;52.242;20.940;2024-02-14T06:51:41;24.40;;;12.15;;
33593;SDS011;19920;52.242;20.940;2024-02-14T06:54:06;24.02;;;12.52;;
33593;SDS011;19920;52.242;20.940;2024-02-14T06:56:32;25.50;;;12.52;;
33593;SDS011;19920;52.242;20.940;2024-02-14T06:58:58;22.35;;;12.65;;
33593;SDS011;19920;52.242;20.940;2024-02-14T07:01:27;22.80;;;12.45;;
33593;SDS011;19920;52.242;20.940;2024-02-14T07:03:53;24.15;;;13.02;;
33593;SDS011;19920;52.242;20.940;2024-02-14T07:06:19;23.73;;;11.98;;
33593;SDS011;19920;52.242;20.940;2024-02-14T07:08:45;24.15;;;12.82;;
33593;SDS011;19920;52.242;20.940;2024-02-14T07:11:12;23.63;;;12.25;;
33593;SDS011;19920;52.242;20.940;2024-02-14T07:13:38;25.95;;;11.93;;
33593;SDS011;19920;52.242;20.940;2024-02-14T07:16:03;21.23;;;11.50;;
33593;SDS011;19920;52.242;20.940;2024-02-14T07:18:29;23.92;;;11.55;;
33593;SDS011;19920;52.242;20.940;2024-02-14T07:20:55;22.90;;;12.07;;
33593;SDS011;19920;52.242;20.940;2024-02-14T07:23:21;23.38;;;12.32;;
33593;SDS011;19920;52.242;20.940;2024-02-14T07:25:46;21.73;;;11.85;;
33593;SDS011;19920;52.242;20.940;2024-02-14T07:28:12;23.58;;;12.85;;
33593;SDS011;19920;52.242;20.940;2024-02-14T07:30:37;22.65;;;12.02;;
33593;SDS011;19920;52.242;20.940;2024-02-14T07:33:03;23.88;;;13.40;;
33593;SDS011;19920;52.242;20.940;2024-02-14T07:35:29;21.95;;;11.65;;
33593;SDS011;19920;52.242;20.940;2024-02-14T07:37:55;29.70;;;13.10;;
33593;SDS011;19920;52.242;20.940;2024-02-14T07:40:21;27.23;;;14.07;;
33593;SDS011;19920;52.242;20.940;2024-02-14T07:42:47;25.23;;;11.82;;
33593;SDS011;19920;52.242;20.940;2024-02-14T07:45:14;29.10;;;13.55;;
33593;SDS011;19920;52.242;20.940;2024-02-14T07:47:40;20.85;;;11.88;;
33593;SDS011;19920;52.242;20.940;2024-02-14T07:50:06;21.92;;;11.75;;
33593;SDS011;19920;52.242;20.940;2024-02-14T07:52:32;26.60;;;11.75;;
33593;SDS011;19920;52.242;20.940;2024-02-14T07:55:02;28.25;;;13.02;;
33593;SDS011;19920;52.242;20.940;2024-02-14T07:57:28;25.58;;;12.75;;
33593;SDS011;19920;52.242;20.940;2024-02-14T07:59:55;21.50;;;11.82;;
33593;SDS011;19920;52.242;20.940;2024-02-14T08:02:21;21.80;;;12.25;;
33593;SDS011;19920;52.242;20.940;2024-02-14T08:04:47;19.52;;;12.20;;
33593;SDS011;19920;52.242;20.940;2024-02-14T08:07:12;20.60;;;11.80;;
33593;SDS011;19920;52.242;20.940;2024-02-14T08:09:38;22.90;;;12.48;;
33593;SDS011;19920;52.242;20.940;2024-02-14T08:12:05;19.23;;;11.35;;
33593;SDS011;19920;52.242;20.940;2024-02-14T08:14:31;24.15;;;12.30;;
33593;SDS011;19920;52.242;20.940;2024-02-14T08:16:57;19.77;;;11.27;;
33593;SDS011;19920;52.242;20.940;2024-02-14T08:19:24;20.02;;;10.90;;
33593;SDS011;19920;52.242;20.940;2024-02-14T08:21:52;20.27;;;10.40;;
33593;SDS011;19920;52.242;20.940;2024-02-14T08:24:22;18.00;;;11.45;;
33593;SDS011;19920;52.242;20.940;2024-02-14T08:26:50;21.48;;;11.32;;
33593;SDS011;19920;52.242;20.940;2024-02-14T08:29:15;22.23;;;10.63;;
33593;SDS011;19920;52.242;20.940;2024-02-14T08:31:41;21.23;;;11.38;;
33593;SDS011;19920;52.242;20.940;2024-02-14T08:34:07;19.67;;;11.07;;
33593;SDS011;19920;52.242;20.940;2024-02-14T08:36:34;19.65;;;10.88;;
33593;SDS011;19920;52.242;20.940;2024-02-14T08:39:09;16.42;;;10.43;;
33593;SDS011;19920;52.242;20.940;2024-02-14T08:41:38;18.27;;;10.10;;
33593;SDS011;19920;52.242;20.940;2024-02-14T08:44:06;19.05;;;10.05;;
33593;SDS011;19920;52.242;20.940;2024-02-14T08:46:32;16.30;;;9.68;;
33593;SDS011;19920;52.242;20.940;2024-02-14T08:48:59;20.23;;;9.82;;
33593;SDS011;19920;52.242;20.940;2024-02-14T08:51:27;15.15;;;9.98;;
33593;SDS011;19920;52.242;20.940;2024-02-14T08:53:53;17.63;;;10.10;;
33593;SDS011;19920;52.242;20.940;2024-02-14T08:56:20;14.38;;;9.80;;
33593;SDS011;19920;52.242;20.940;2024-02-14T08:58:47;16.85;;;9.25;;
33593;SDS011;19920;52.242;20.940;2024-02-14T09:01:13;20.80;;;10.88;;
33593;SDS011;19920;52.242;20.940;2024-02-14T09:03:39;18.15;;;9.68;;
33593;SDS011;19920;52.242;20.940;2024-02-14T09:06:08;20.67;;;9.85;;
33593;SDS011;19920;52.242;20.940;2024-02-14T09:08:34;18.52;;;9.63;;
33593;SDS011;19920;52.242;20.940;2024-02-14T09:11:00;15.90;;;9.88;;
33593;SDS011;19920;52.242;20.940;2024-02-14T09:13:26;15.73;;;9.43;;
33593;SDS011;19920;52.242;20.940;2024-02-14T09:15:52;17.48;;;9.93;;
33593;SDS011;19920;52.242;20.940;2024-02-14T09:18:19;16.75;;;10.15;;
33593;SDS011;19920;52.242;20.940;2024-02-14T09:20:44;19.02;;;10.65;;
33593;SDS011;19920;52.242;20.940;2024-02-14T09:23:11;16.88;;;9.07;;
33593;SDS011;19920;52.242;20.940;2024-02-14T09:25:39;16.45;;;9.02;;
33593;SDS011;19920;52.242;20.940;2024-02-14T09:28:05;16.55;;;8.82;;
33593;SDS011;19920;52.242;20.940;2024-02-14T09:30:32;17.60;;;9.05;;
33593;SDS011;19920;52.242;20.940;2024-02-14T09:32:58;18.98;;;8.68;;
33593;SDS011;19920;52.242;20.940;2024-02-14T09:35:24;16.20;;;8.02;;
33593;SDS011;19920;52.242;20.940;2024-02-14T09:37:50;16.10;;;7.80;;
33593;SDS011;19920;52.242;20.940;2024-02-14T09:40:16;12.65;;;7.43;;
33593;SDS011;19920;52.242;20.940;2024-02-14T09:42:48;12.25;;;7.75;;
33593;SDS011;19920;52.242;20.940;2024-02-14T09:45:23;18.20;;;8.13;;
33593;SDS011;19920;52.242;20.940;2024-02-14T09:47:51;12.48;;;6.97;;
33593;SDS011;19920;52.242;20.940;2024-02-14T09:50:17;12.95;;;6.55;;
33593;SDS011;19920;52.242;20.940;2024-02-14T09:52:46;11.98;;;6.65;;
33593;SDS011;19920;52.242;20.940;2024-02-14T09:55:13;8.18;;;4.80;;
33593;SDS011;19920;52.242;20.940;2024-02-14T09:57:41;11.20;;;4.72;;
33593;SDS011;19920;52.242;20.940;2024-02-14T10:00:10;8.57;;;4.45;;
33593;SDS011;19920;52.242;20.940;2024-02-14T10:02:40;9.02;;;3.92;;
33593;SDS011;19920;52.242;20.940;2024-02-14T10:05:06;9.18;;;4.13;;
33593;SDS011;19920;52.242;20.940;2024-02-14T10:07:42;7.60;;;3.88;;
33593;SDS011;19920;52.242;20.940;2024-02-14T10:10:09;9.07;;;4.00;;
33593;SDS011;19920;52.242;20.940;2024-02-14T10:12:36;10.95;;;4.63;;
33593;SDS011;19920;52.242;20.940;2024-02-14T10:15:01;9.52;;;4.53;;
33593;SDS011;19920;52.242;20.940;2024-02-14T10:17:29;8.88;;;3.58;;
33593;SDS011;19920;52.242;20.940;2024-02-14T10:19:56;7.78;;;3.05;;
33593;SDS011;19920;52.242;20.940;2024-02-14T10:22:21;7.07;;;3.00;;
33593;SDS011;19920;52.242;20.940;2024-02-14T10:24:47;7.05;;;3.13;;
33593;SDS011;19920;52.242;20.940;2024-02-14T10:27:13;7.90;;;3.30;;
33593;SDS011;19920;52.242;20.940;2024-02-14T10:29:40;6.22;;;2.75;;
33593;SDS011;19920;52.242;20.940;2024-02-14T10:32:07;7.68;;;3.10;;
33593;SDS011;19920;52.242;20.940;2024-02-14T10:34:33;6.18;;;3.03;;
33593;SDS011;19920;52.242;20.940;2024-02-14T10:36:58;6.38;;;3.35;;
33593;SDS011;19920;52.242;20.940;2024-02-14T10:39:25;5.38;;;2.50;;
33593;SDS011;19920;52.242;20.940;2024-02-14T10:41:52;6.45;;;2.13;;
33593;SDS011;19920;52.242;20.940;2024-02-14T10:44:17;6.53;;;2.90;;
33593;SDS011;19920;52.242;20.940;2024-02-14T10:46:44;4.40;;;2.40;;
33593;SDS011;19920;52.242;20.940;2024-02-14T10:49:11;6.22;;;2.95;;
33593;SDS011;19920;52.242;20.940;2024-02-14T10:51:40;5.20;;;2.55;;
33593;SDS011;19920;52.242;20.940;2024-02-14T10:54:11;5.18;;;2.22;;
33593;SDS011;19920;52.242;20.940;2024-02-14T10:56:45;6.40;;;2.47;;
33593;SDS011;19920;52.242;20.940;2024-02-14T10:59:19;7.25;;;2.65;;
33593;SDS011;19920;52.242;20.940;2024-02-14T11:01:46;6.57;;;2.63;;
33593;SDS011;19920;52.242;20.940;2024-02-14T11:04:12;8.32;;;3.20;;
33593;SDS011;19920;52.242;20.940;2024-02-14T11:06:48;7.25;;;2.25;;
33593;SDS011;19920;52.242;20.940;2024-02-14T11:09:19;4.82;;;2.20;;
33593;SDS011;19920;52.242;20.940;2024-02-14T11:11:45;5.85;;;2.70;;
33593;SDS011;19920;52.242;20.940;2024-02-14T11:14:15;6.22;;;2.33;;
33593;SDS011;19920;52.242;20.940;2024-02-14T11:16:44;4.43;;;1.95;;
33593;SDS011;19920;52.242;20.940;2024-02-14T11:19:12;4.32;;;1.95;;
33593;SDS011;19920;52.242;20.940;2024-02-14T11:21:42;4.03;;;1.70;;
33593;SDS011;19920;52.242;20.940;2024-02-14T11:24:11;3.92;;;2.00;;
33593;SDS011;19920;52.242;20.940;2024-02-14T11:26:46;4.70;;;2.00;;
33593;SDS011;19920;52.242;20.940;2024-02-14T11:29:17;4.30;;;1.60;;
33593;SDS011;19920;52.242;20.940;2024-02-14T11:31:46;4.63;;;1.80;;
33593;SDS011;19920;52.242;20.940;2024-02-14T11:34:16;3.42;;;1.90;;
33593;SDS011;19920;52.242;20.940;2024-02-14T11:36:42;3.45;;;1.60;;
33593;SDS011;19920;52.242;20.940;2024-02-14T11:39:09;5.10;;;2.00;;
33593;SDS011;19920;52.242;20.940;2024-02-14T11:41:37;2.83;;;1.48;;
33593;SDS011;19920;52.242;20.940;2024-02-14T11:44:03;2.95;;;1.60;;
33593;SDS011;19920;52.242;20.940;2024-02-14T11:46:33;5.20;;;1.83;;
33593;SDS011;19920;52.242;20.940;2024-02-14T11:49:00;4.72;;;1.85;;
33593;SDS011;19920;52.242;20.940;2024-02-14T11:51:30;5.22;;;2.15;;
33593;SDS011;19920;52.242;20.940;2024-02-14T11:53:58;4.35;;;1.80;;
33593;SDS011;19920;52.242;20.940;2024-02-14T11:56:31;4.43;;;2.03;;
33593;SDS011;19920;52.242;20.940;2024-02-14T11:59:04;7.63;;;1.60;;
33593;SDS011;19920;52.242;20.940;2024-02-14T12:01:34;5.40;;;1.80;;
33593;SDS011;19920;52.242;20.940;2024-02-14T12:04:01;2.88;;;1.70;;
33593;SDS011;19920;52.242;20.940;2024-02-14T12:06:30;3.95;;;1.83;;
33593;SDS011;19920;52.242;20.940;2024-02-14T12:08:57;3.33;;;1.88;;
33593;SDS011;19920;52.242;20.940;2024-02-14T12:11:30;5.75;;;1.80;;
33593;SDS011;19920;52.242;20.940;2024-02-14T12:14:00;4.80;;;1.98;;
33593;SDS011;19920;52.242;20.940;2024-02-14T12:16:26;4.80;;;1.88;;
33593;SDS011;19920;52.242;20.940;2024-02-14T12:19:03;4.75;;;1.77;;
33593;SDS011;19920;52.242;20.940;2024-02-14T12:21:34;6.00;;;2.10;;
33593;SDS011;19920;52.242;20.940;2024-02-14T12:24:01;4.68;;;2.08;;
33593;SDS011;19920;52.242;20.940;2024-02-14T12:26:29;4.05;;;1.95;;
33593;SDS011;19920;52.242;20.940;2024-02-14T12:28:56;6.22;;;1.85;;
33593;SDS011;19920;52.242;20.940;2024-02-14T12:31:24;2.88;;;1.77;;
33593;SDS011;19920;52.242;20.940;2024-02-14T12:33:50;6.72;;;2.00;;
33593;SDS011;19920;52.242;20.940;2024-02-14T12:36:19;6.32;;;2.30;;
33593;SDS011;19920;52.242;20.940;2024-02-14T12:38:45;4.55;;;1.83;;
33593;SDS011;19920;52.242;20.940;2024-02-14T12:41:10;5.20;;;2.10;;
33593;SDS011;19920;52.242;20.940;2024-02-14T12:43:36;2.30;;;1.50;;
33593;SDS011;19920;52.242;20.940;2024-02-14T12:46:01;6.30;;;1.85;;
33593;SDS011;19920;52.242;20.940;2024-02-14T12:48:29;5.05;;;1.80;;
33593;SDS011;19920;52.242;20.940;2024-02-14T12:50:55;3.70;;;1.90;;
33593;SDS011;19920;52.242;20.940;2024-02-14T12:53:21;4.40;;;1.85;;
33593;SDS011;19920;52.242;20.940;2024-02-14T12:55:47;4.80;;;1.70;;
33593;SDS011;19920;52.242;20.940;2024-02-14T12:58:13;4.70;;;1.58;;
33593;SDS011;19920;52.242;20.940;2024-02-14T13:00:40;4.75;;;2.38;;
33593;SDS011;19920;52.242;20.940;2024-02-14T13:03:08;5.32;;;2.08;;
33593;SDS011;19920;52.242;20.940;2024-02-14T13:05:35;8.07;;;2.05;;
33593;SDS011;19920;52.242;20.940;2024-02-14T13:08:01;4.60;;;2.80;;
33593;SDS011;19920;52.242;20.940;2024-02-14T13:10:27;8.82;;;2.00;;
33593;SDS011;19920;52.242;20.940;2024-02-14T13:12:54;3.88;;;1.98;;
33593;SDS011;19920;52.242;20.940;2024-02-14T13:15:19;4.57;;;2.30;;
33593;SDS011;19920;52.242;20.940;2024-02-14T13:17:45;4.00;;;2.00;;
33593;SDS011;19920;52.242;20.940;2024-02-14T13:20:11;6.28;;;2.17;;
33593;SDS011;19920;52.242;20.940;2024-02-14T13:22:37;9.00;;;3.92;;
33593;SDS011;19920;52.242;20.940;2024-02-14T13:25:02;7.75;;;2.25;;
33593;SDS011;19920;52.242;20.940;2024-02-14T13:27:30;3.38;;;1.92;;
33593;SDS011;19920;52.242;20.940;2024-02-14T13:29:55;3.85;;;2.30;;
33593;SDS011;19920;52.242;20.940;2024-02-14T13:32:21;4.82;;;2.08;;
33593;SDS011;19920;52.242;20.940;2024-02-14T13:34:47;3.40;;;1.83;;
33593;SDS011;19920;52.242;20.940;2024-02-14T13:37:13;3.63;;;1.75;;
33593;SDS011;19920;52.242;20.940;2024-02-14T13:39:40;5.30;;;1.80;;
33593;SDS011;19920;52.242;20.940;2024-02-14T13:42:06;2.63;;;1.67;;
33593;SDS011;19920;52.242;20.940;2024-02-14T13:44:33;5.25;;;2.08;;
33593;SDS011;19920;52.242;20.940;2024-02-14T13:46:58;8.30;;;3.13;;
33593;SDS011;19920;52.242;20.940;2024-02-14T13:49:25;6.63;;;2.33;;
33593;SDS011;19920;52.242;20.940;2024-02-14T13:51:51;4.50;;;1.80;;
33593;SDS011;19920;52.242;20.940;2024-02-14T13:54:19;7.18;;;1.83;;
33593;SDS011;19920;52.242;20.940;2024-02-14T13:56:45;5.28;;;2.05;;
33593;SDS011;19920;52.242;20.940;2024-02-14T13:59:11;4.13;;;2.13;;
33593;SDS011;19920;52.242;20.940;2024-02-14T14:01:36;4.90;;;1.95;;
33593;SDS011;19920;52.242;20.940;2024-02-14T14:04:03;5.03;;;1.88;;
33593;SDS011;19920;52.242;20.940;2024-02-14T14:06:29;3.40;;;1.98;;
33593;SDS011;19920;52.242;20.940;2024-02-14T14:08:54;3.45;;;1.60;;
33593;SDS011;19920;52.242;20.940;2024-02-14T14:11:20;7.20;;;2.25;;
33593;SDS011;19920;52.242;20.940;2024-02-14T14:13:46;5.07;;;1.92;;
33593;SDS011;19920;52.242;20.940;2024-02-14T14:16:11;4.38;;;1.80;;
33593;SDS011;19920;52.242;20.940;2024-02-14T14:18:37;7.50;;;1.85;;